createdAt,value
2022-12-27T01:19:08.303Z,101711.75
2022-12-27T01:24:51.503Z,101708.88
2022-12-27T02:03:59.014Z,101724.31
2022-12-27T02:22:09.333Z,101730.00
2022-12-27T02:27:58.192Z,101740.44
2022-12-27T02:56:31.846Z,101758.41
2022-12-27T03:02:05.776Z,101746.66
2022-12-27T03:07:27.066Z,101758.75
2022-12-27T03:12:57.133Z,101750.81
2022-12-27T03:18:11.236Z,101753.50
2022-12-27T03:23:36.238Z,101772.88
2022-12-27T03:29:03.833Z,101754.53
2022-12-27T03:34:25.074Z,101776.78
2022-12-27T03:39:42.585Z,101750.25
2022-12-27T04:03:19.824Z,101762.72
2022-12-27T04:08:40.614Z,101756.47
2022-12-27T04:14:05.794Z,101754.03
2022-12-27T04:19:29.596Z,101751.53
2022-12-27T04:24:50.859Z,101760.34
2022-12-27T04:30:11.848Z,101754.34
2022-12-27T04:35:18.566Z,101757.72
2022-12-27T04:40:38.975Z,101754.78
2022-12-27T04:45:59.569Z,101749.94
2022-12-27T04:51:21.744Z,101754.28
2022-12-27T04:56:28.236Z,101751.44
2022-12-27T05:01:49.576Z,101751.63
2022-12-27T05:06:56.236Z,101750.09
2022-12-27T05:12:16.726Z,101749.16
2022-12-27T05:17:25.956Z,101752.59
2022-12-27T05:23:20.681Z,101770.13
2022-12-27T05:29:11.116Z,101762.22
2022-12-27T06:31:30.980Z,101775.22
2022-12-27T06:37:11.140Z,101776.88
2022-12-27T07:30:05.714Z,101820.59
2022-12-27T07:41:54.314Z,101826.66
2022-12-27T07:46:57.653Z,101817.13
2022-12-27T07:57:48.591Z,101832.19
2022-12-27T08:03:04.335Z,101828.66
2022-12-27T08:50:25.271Z,101874.06
2022-12-27T09:08:53.007Z,101895.78
2022-12-27T09:14:39.155Z,101899.28
2022-12-27T09:32:19.005Z,101904.00
2022-12-27T10:02:43.511Z,101937.97
2022-12-27T10:14:07.303Z,101933.16
2022-12-27T10:19:28.844Z,101933.91
2022-12-27T12:32:58.899Z,101809.56
2022-12-27T12:38:50.001Z,101780.19
2022-12-27T12:44:41.517Z,101777.22
2022-12-27T12:50:22.755Z,101763.31
2022-12-27T12:55:40.353Z,101751.09
2022-12-27T13:00:58.914Z,101739.69
2022-12-27T13:06:16.420Z,101741.63
2022-12-27T13:11:36.961Z,101740.34
2022-12-27T13:16:54.291Z,101738.78
2022-12-27T13:22:14.431Z,101729.97
2022-12-27T13:27:28.663Z,101719.25
2022-12-27T13:32:50.975Z,101725.22
2022-12-27T13:38:08.722Z,101717.00
2022-12-27T13:43:37.445Z,101715.44
2022-12-27T13:49:02.786Z,101711.50
2022-12-27T13:54:31.771Z,101706.38
2022-12-27T14:00:01.299Z,101701.41
2022-12-27T14:05:45.652Z,101694.56
2022-12-27T14:11:01.081Z,101705.81
2022-12-27T14:16:38.617Z,101695.56
2022-12-27T14:22:07.519Z,101689.72
2022-12-27T14:28:06.901Z,101696.94
2022-12-27T14:33:48.091Z,101692.50
2022-12-27T14:39:36.757Z,101695.16
2022-12-27T14:45:20.615Z,101696.16
2022-12-27T14:51:58.377Z,101700.47
2022-12-27T14:57:06.551Z,101700.28
2022-12-27T15:02:36.086Z,101701.03
2022-12-27T15:08:02.122Z,101700.00
2022-12-27T15:13:16.481Z,101694.22
2022-12-27T15:18:48.335Z,101695.09
2022-12-27T15:24:05.022Z,101699.13
2022-12-27T15:29:41.337Z,101698.63
2022-12-27T15:35:12.191Z,101696.44
2022-12-27T15:40:26.820Z,101693.44
2022-12-27T15:45:49.105Z,101697.69
2022-12-27T15:51:01.296Z,101694.03
2022-12-27T15:56:26.520Z,101708.19
2022-12-27T16:01:32.181Z,101706.41
2022-12-27T16:07:04.038Z,101705.22
2022-12-27T16:12:36.328Z,101699.97
2022-12-27T16:18:00.625Z,101706.09
2022-12-27T16:23:08.088Z,101704.22
2022-12-27T16:28:26.986Z,101710.53
2022-12-27T16:33:42.252Z,101703.72
2022-12-27T16:38:51.061Z,101707.34
2022-12-27T16:44:10.029Z,101700.53
2022-12-27T16:49:47.976Z,101704.50
2022-12-27T16:55:06.342Z,101706.47
2022-12-27T17:00:42.510Z,101698.00
2022-12-27T17:06:22.115Z,101695.34
2022-12-27T17:11:30.639Z,101710.63
2022-12-27T17:16:43.373Z,101707.53
2022-12-27T17:21:58.437Z,101701.88
2022-12-27T17:27:10.795Z,101702.19
2022-12-27T17:32:28.952Z,101704.84
2022-12-27T17:37:43.856Z,101709.34
2022-12-27T17:43:17.551Z,101704.09
2022-12-27T17:48:28.770Z,101708.75
